Date,TemperatureHighF,TemperatureAvgF,TemperatureLowF,DewpointHighF,DewpointAvgF,DewpointLowF,HumidityHigh,HumidityAvg,HumidityLow,PressureMaxIn,PressureMinIn,WindSpeedMaxMPH,WindSpeedAvgMPH,GustSpeedMaxMPH,PrecipitationSumIn
2013-1-7,32.8,18.8,15.9,17.1,-16.6,-99.9,80,47,50,30.44,30.35,2,0,0,0.00
2013-1-8,40.9,18.5,29.7,21.8,-39.9,-99.9,70,26,42,30.40,30.30,6,1,0,0.01
2013-1-9,42.8,19.0,33.8,29.2,-41.3,-99.9,62,26,47,30.22,29.99,5,-533,7,0.04
2013-1-10,41.9,20.3,28.1,23.2,-34.6,-99.9,74,28,44,30.63,30.12,7,-462,17,0.00
2013-1-11,39.6,9.1,24.8,29.7,-66.2,-99.9,86,19,45,30.62,30.18,2,-456,17,0.03
2013-1-12,53.3,17.1,36.8,46.6,-46.7,-99.9,95,32,68,30.20,30.10,3,-598,5,0.00
2013-1-13,59.3,23.6,36.9,48.9,-32.6,-99.9,96,38,65,30.18,29.91,5,-536,7,0.00
2013-1-14,48.9,18.4,35.5,43.7,-44.2,-99.9,83,26,50,30.34,29.85,6,-573,12,0.00
2013-1-15,-200.0,0.0,200.0,-99.9,-99.9,-99.9,0,0,100,30.34,30.30,0,-999,12,0.00
2013-1-16,30.7,6.7,29.0,27.4,-71.7,-99.9,91,19,84,30.10,29.84,0,-776,12,0.00
2013-1-17,35.2,13.5,18.0,27.6,-44.7,-99.9,80,27,42,30.19,29.86,8,-507,17,0.00
2013-1-18,21.0,7.6,4.7,2.8,-54.8,-99.9,69,20,32,30.45,30.11,6,-532,19,0.00
2013-1-19,41.5,16.3,30.6,23.2,-49.9,-99.9,55,19,39,30.33,29.83,5,-575,13,0.00
2013-1-20,41.2,15.8,20.0,28.3,-41.8,-99.9,68,23,31,30.05,29.52,26,-468,26,0.00
2013-1-21,23.9,19.5,16.2,15.2,5.4,-3.5,84,55,39,30.15,29.86,6,1,13,0.00
2013-1-22,19.7,13.4,8.4,15.5,1.9,-12.3,84,62,35,30.13,29.85,7,1,12,0.00
2013-1-23,11.1,4.5,-1.0,-14.1,-16.4,-22.2,51,38,26,30.22,30.12,6,1,9,0.00
2013-1-24,15.6,4.7,-6.3,-7.0,-13.9,-19.6,72,44,22,30.44,30.20,11,2,25,0.00
2013-1-25,15.2,8.6,0.5,5.0,-8.6,-14.6,76,46,31,30.51,30.18,5,1,13,0.00
2013-1-26,17.0,10.3,3.2,5.0,-0.6,-7.2,80,62,37,30.42,30.15,7,1,12,0.00
2013-1-27,27.2,12.7,1.5,5.6,0.1,-4.0,80,59,28,30.62,30.42,3,0,8,0.00
2013-1-28,24.1,17.7,6.7,21.3,12.2,0.4,89,79,58,30.61,30.08,0,0,8,0.00
2013-1-29,36.6,29.3,24.1,31.0,25.7,21.3,90,86,79,30.23,30.08,1,0,8,0.01
2013-1-30,60.1,51.9,36.3,55.0,49.0,34.7,96,90,74,29.88,29.33,6,2,12,0.22
2013-1-31,53.8,38.2,25.3,52.7,27.2,7.1,96,67,41,29.65,28.88,16,6,30,0.95
2013-2-1,25.3,21.9,16.4,12.1,6.6,0.5,63,51,42,30.22,29.65,8,3,14,0.00
2013-2-2,24.1,17.9,10.7,12.4,4.5,-1.0,72,56,46,30.34,30.11,5,1,10,0.00
2013-2-3,30.9,20.0,9.3,11.5,8.9,4.9,83,64,36,30.15,29.85,2,0,5,0.00
2013-2-4,23.9,19.9,16.2,15.0,5.5,-1.2,81,54,37,30.03,29.83,6,2,17,0.00
2013-2-5,30.0,19.1,7.9,12.7,6.6,1.2,82,59,36,30.15,29.99,3,0,7,0.00
2013-2-6,33.4,27.3,17.2,20.3,7.1,-6.4,80,45,21,30.44,30.03,9,3,19,0.00
2013-2-7,24.7,18.3,9.5,3.0,-0.5,-3.3,57,44,32,30.67,30.44,2,0,6,0.00
2013-2-8,25.0,22.7,19.5,18.5,13.2,2.0,88,69,38,30.50,29.92,5,2,14,0.00
2013-2-9,20.5,14.3,9.3,17.6,3.9,-5.7,89,65,43,30.47,29.92,9,2,14,0.00
2013-2-10,36.0,12.6,-6.5,7.5,-2.0,-12.4,79,56,22,30.69,30.43,1,0,4,0.13
2013-2-11,44.9,31.0,9.3,39.3,25.6,2.9,93,81,47,30.43,29.68,10,1,21,0.18
2013-2-12,38.5,35.2,31.5,28.7,25.9,22.4,75,69,63,29.95,29.71,10,4,22,0.00
2013-2-13,36.2,30.7,24.8,23.7,20.3,17.3,79,66,50,29.94,29.82,4,0,8,0.00
2013-2-14,26.0,25.1,23.5,20.4,19.7,18.6,82,80,77,29.88,29.81,0,0,4,0.00
2013-2-15,44.2,37.5,29.4,30.1,24.9,19.0,92,62,43,30.05,29.94,6,1,16,0.00
2013-2-16,33.1,28.2,21.4,26.9,17.8,3.3,88,66,45,30.06,29.94,3,0,7,0.01
2013-2-17,21.3,15.6,9.7,5.8,0.8,-4.8,67,52,39,30.01,29.75,8,3,18,0.00
2013-2-18,29.1,17.2,8.3,4.6,-3.4,-9.4,61,42,20,30.27,30.01,10,3,20,0.00
2013-2-19,44.2,28.3,12.6,31.9,17.8,4.1,94,68,33,30.28,29.65,9,1,17,0.10
2013-2-20,33.2,25.7,21.1,31.7,17.7,12.7,94,72,58,29.90,29.65,6,2,12,0.01
2013-2-21,25.4,20.6,16.9,14.0,9.0,4.6,73,61,50,30.40,29.90,6,2,12,0.00
2013-2-22,40.5,35.1,29.0,22.3,20.1,17.7,68,55,42,30.51,30.32,3,0,4,11.89
2013-2-23,35.9,34.1,31.9,29.5,25.9,20.3,83,72,58,30.32,29.96,5,1,10,0.00
2013-2-24,39.2,34.2,31.0,32.5,29.9,27.6,91,85,70,30.00,29.78,3,0,6,0.07
2013-2-25,36.9,31.2,26.6,28.8,26.5,23.5,91,83,69,30.33,30.00,1,0,4,0.02
2013-2-26,43.5,33.9,23.9,31.9,25.7,21.4,93,73,53,30.42,30.17,5,1,12,0.00
2013-2-27,37.9,34.5,31.3,33.8,30.3,24.3,92,85,67,30.17,29.68,9,4,17,0.62
2013-2-28,41.9,34.9,31.5,36.9,31.4,28.6,93,87,72,29.70,29.60,2,0,4,0.03
2013-3-1,38.5,34.1,31.3,32.2,26.7,23.6,93,75,58,29.79,29.65,7,2,16,0.01
2013-3-2,33.2,30.5,26.0,26.3,24.3,20.4,83,78,70,29.79,29.70,5,2,11,0.01
2013-3-3,29.8,26.8,23.3,24.2,21.0,18.5,83,78,71,29.78,29.68,3,0,10,0.05
2013-3-4,34.3,27.7,23.9,21.3,18.5,15.8,78,68,53,29.92,29.69,6,1,13,0.00
2013-3-5,41.1,30.4,25.8,25.5,21.9,18.5,84,71,52,30.16,29.92,3,0,5,0.00
2013-3-6,37.5,34.0,28.2,30.3,26.4,21.2,85,74,61,30.21,30.11,4,2,10,0.01
2013-3-7,38.6,32.3,28.2,27.0,23.8,20.3,89,72,55,30.21,30.15,3,0,6,0.00
2013-3-8,38.6,30.3,25.6,27.5,25.0,20.0,90,81,62,30.37,30.16,3,1,6,0.14
2013-3-9,54.2,33.4,15.7,26.4,21.3,12.7,91,66,27,30.45,30.30,2,0,5,0.14
2013-3-10,56.7,38.7,20.5,30.2,21.4,15.1,92,58,20,30.47,30.22,4,1,8,0.00
2013-3-11,43.2,40.8,35.6,27.6,26.3,24.7,70,56,48,30.26,30.20,3,1,6,0.00
2013-3-12,50.7,45.8,37.2,48.3,43.6,34.8,95,92,76,29.98,29.67,6,1,12,0.58
2013-3-13,44.1,38.1,33.8,34.9,24.5,15.1,91,60,35,29.86,29.78,6,2,14,0.00
2013-3-14,34.0,24.5,20.5,22.8,12.5,5.1,76,60,45,29.98,29.84,9,3,16,0.00
2013-3-15,33.8,25.8,16.1,27.4,13.7,3.4,83,61,35,30.01,29.68,8,3,19,0.00
2013-3-16,34.3,27.0,19.7,19.5,12.4,7.8,71,55,37,29.97,29.80,7,1,13,0.00
2013-3-17,33.2,24.6,17.3,14.9,6.5,-2.9,73,48,24,30.42,29.97,9,2,19,0.00
2013-3-18,39.3,24.8,9.0,22.5,4.4,-3.5,83,47,18,30.58,30.19,4,1,7,0.00
2013-3-19,32.5,29.4,26.1,29.4,25.3,21.4,92,84,75,30.19,29.69,7,2,17,0.01
2013-3-20,32.7,27.9,24.1,23.8,17.7,15.6,88,66,53,29.81,29.70,7,3,17,0.12
2013-3-21,38.5,28.0,19.2,17.7,13.5,7.2,74,56,31,29.79,29.62,6,1,16,0.14
2013-3-22,32.8,22.7,12.6,27.3,15.0,7.8,87,73,56,29.72,29.66,4,1,16,0.02
2013-3-23,37.2,35.0,32.7,19.1,16.6,14.4,57,47,40,29.86,29.71,10,6,27,0.01
2013-3-24,41.6,34.6,28.7,22.9,20.6,18.8,71,57,45,29.92,29.76,5,1,27,0.00
2013-3-25,42.9,34.8,25.8,25.7,22.4,19.6,80,62,44,29.82,29.53,2,0,27,0.00
2013-3-26,45.5,35.3,26.6,29.4,23.6,16.6,88,65,31,29.82,29.61,6,1,27,0.00
2013-3-27,49.6,35.4,21.0,31.6,24.2,17.7,89,66,39,29.93,29.80,6,1,27,0.00
2013-3-28,46.8,38.6,31.6,35.1,30.7,27.6,91,74,53,30.10,29.93,6,1,27,0.02
2013-3-29,48.0,39.0,31.6,33.5,30.1,27.0,89,71,49,30.14,30.03,4,1,27,0.00
2013-3-30,55.0,40.7,25.8,30.6,20.1,12.0,88,50,19,30.17,30.04,6,1,27,0.00
2013-3-31,56.0,39.1,22.1,36.9,24.5,18.0,88,62,25,30.18,29.76,7,1,27,0.11
2013-4-1,50.2,38.1,29.3,42.1,29.6,7.9,94,74,31,29.84,29.55,11,2,27,0.13
2013-4-2,32.8,28.5,25.1,20.2,12.6,7.9,77,51,36,29.98,29.83,10,4,27,0.00
2013-4-3,40.9,31.7,25.3,17.6,8.9,1.9,65,40,20,30.25,29.95,10,4,27,0.00
2013-4-4,50.7,37.7,26.0,20.5,16.3,12.9,68,44,24,30.37,29.99,6,2,27,0.00
2013-4-5,53.1,43.2,35.3,24.8,19.3,14.2,55,39,26,29.99,29.73,8,3,27,0.00
2013-4-6,45.2,36.5,26.0,13.6,6.3,-0.3,59,30,16,30.37,30.26,7,2,27,0.00
2013-4-7,60.4,42.7,24.2,36.7,23.1,13.0,76,50,21,30.35,29.87,7,2,27,0.00
2013-4-8,63.9,51.0,42.9,39.7,33.5,25.8,76,53,24,30.14,29.94,5,1,27,0.00
2013-4-9,61.8,53.7,45.1,49.6,42.0,33.5,95,66,43,30.03,29.84,9,2,27,0.03
2013-4-10,56.0,48.6,44.6,50.0,45.2,41.8,96,88,71,30.03,29.87,2,0,27,0.10
2013-4-11,44.6,37.6,32.4,42.7,32.2,26.4,94,81,61,30.22,29.92,3,0,27,0.02
2013-4-12,36.0,34.0,32.1,30.1,28.2,25.4,85,79,67,30.22,29.89,7,3,27,0.03
2013-4-13,49.5,39.7,32.9,37.6,33.3,28.5,93,79,55,30.00,29.85,4,0,27,0.42
2013-4-14,45.7,39.5,30.6,35.3,29.1,22.8,94,69,44,30.30,29.98,6,1,27,0.04
2013-4-15,63.5,44.9,25.0,34.8,28.3,22.2,91,57,30,30.44,30.22,4,1,8,0.00
2013-4-16,62.1,53.1,41.3,53.4,42.7,31.6,89,68,52,30.33,29.98,8,3,18,0.33
2013-4-17,61.6,50.5,38.0,47.0,33.5,27.5,88,55,28,30.38,30.06,7,2,11,0.00
2013-4-18,64.0,50.7,33.2,44.6,31.8,24.2,82,51,31,30.41,30.04,9,3,13,0.00
2013-4-19,71.6,64.2,48.6,60.5,53.9,44.6,88,70,58,30.03,29.49,14,4,24,0.62
2013-4-20,51.3,43.3,34.3,44.2,29.5,16.2,89,61,34,30.34,29.71,10,3,16,0.14
2013-4-21,50.7,37.2,28.4,19.2,15.4,6.6,63,43,18,30.74,30.33,7,2,12,0.00
2013-4-22,56.0,41.9,27.3,27.3,19.3,14.2,74,44,22,30.78,30.54,6,2,13,0.00
2013-4-23,38.3,34.8,32.4,27.2,25.3,24.2,73,68,61,30.59,30.53,4,1,12,0.00
2013-4-27,66.4,56.3,39.3,31.5,27.3,19.7,70,36,19,30.43,30.28,4,1,7,0.00
2013-4-28,74.6,54.3,31.0,37.9,31.8,27.5,88,50,19,30.37,30.09,5,1,7,0.00
2013-4-29,65.2,56.1,47.0,41.2,37.5,33.2,71,50,36,30.22,30.13,4,1,8,0.00
2013-4-30,73.9,59.3,48.3,43.5,37.3,30.8,74,47,25,30.31,30.18,4,0,8,0.00
2013-5-1,79.0,58.4,37.6,37.8,31.6,17.7,83,45,11,30.46,30.30,3,0,12,0.00
2013-5-2,82.4,61.1,38.6,43.7,37.2,27.7,87,47,19,30.48,30.24,4,1,12,0.00
2013-5-3,70.6,58.2,46.0,42.1,33.0,20.6,72,41,23,30.51,30.29,4,1,12,0.00
2013-5-4,77.2,59.6,38.8,45.9,35.2,18.0,93,49,12,30.38,30.15,3,1,12,0.00
2013-5-5,77.2,58.4,38.3,36.1,29.7,22.4,71,38,14,30.31,30.10,4,1,12,0.00
2013-5-6,79.9,56.9,34.9,41.5,34.4,27.2,90,51,15,30.27,30.02,3,0,12,0.00
2013-5-7,85.9,61.5,40.2,52.9,41.0,32.1,92,55,19,30.19,29.97,3,0,7,0.00
2013-5-8,73.5,60.1,46.1,58.7,52.3,43.4,94,77,47,30.16,30.00,5,1,11,0.17
2013-5-9,67.6,60.1,50.2,58.5,54.1,49.1,96,82,57,29.99,29.84,2,0,4,0.02
2013-5-10,76.0,62.4,51.4,59.0,53.0,47.0,96,75,38,29.98,29.83,3,0,5,0.00
2013-5-11,68.1,60.8,56.6,62.3,57.8,53.1,94,90,77,29.82,29.63,4,0,8,0.21
2013-5-12,59.9,53.1,44.3,53.0,39.5,22.1,90,64,27,29.84,29.63,8,2,13,0.01
2013-5-13,45.7,41.4,39.3,30.2,27.6,25.4,65,58,49,30.02,29.85,8,4,19,0.00
2013-5-14,55.3,46.7,30.7,32.9,28.9,23.4,92,53,30,30.13,30.01,5,1,11,0.00
2013-5-15,62.4,46.4,27.3,49.5,36.7,25.0,92,72,31,30.11,29.62,5,1,11,0.01
2013-5-16,75.1,63.0,46.5,49.1,37.9,24.8,83,44,18,29.84,29.61,8,3,22,0.00
2013-5-17,69.3,54.7,42.6,41.0,37.9,32.0,83,56,26,30.25,29.85,7,1,22,0.00
2013-5-18,71.3,55.2,34.9,44.7,38.1,32.5,93,59,26,30.34,30.18,3,0,22,0.00
2013-5-19,65.2,53.9,40.9,54.9,49.4,38.5,95,85,63,30.33,30.16,4,0,22,0.12
2013-5-20,75.3,62.7,54.8,63.4,58.0,53.4,95,85,62,30.15,29.92,3,0,22,0.00
2013-5-21,86.5,69.9,56.2,65.5,60.1,53.7,96,75,42,29.97,29.74,4,1,22,0.33
2013-5-22,81.1,65.9,55.6,67.7,61.9,53.6,96,88,59,29.91,29.75,6,0,11,0.77
2013-5-23,77.4,68.0,59.8,66.6,62.8,58.7,96,85,63,29.80,29.70,4,1,11,0.05
2013-5-24,64.3,52.4,42.6,62.5,49.4,40.2,96,90,78,29.97,29.62,5,1,11,0.39
2013-5-25,43.9,42.0,39.5,41.9,39.7,36.8,93,91,89,29.96,29.86,4,1,11,0.42
2013-5-26,50.8,43.3,37.5,42.8,39.2,35.9,95,86,64,30.15,29.86,5,2,11,0.08
2013-5-27,70.3,53.1,34.7,43.2,36.9,31.1,96,62,25,30.21,30.07,5,1,14,0.00
2013-5-28,74.7,57.6,36.5,51.1,41.3,28.5,96,62,21,30.25,30.08,2,0,11,0.00
2013-5-29,73.9,62.6,56.2,66.4,59.7,50.5,96,91,73,30.09,29.92,2,0,11,0.38
2013-5-30,84.9,73.3,61.3,66.9,63.6,60.2,97,74,50,30.07,29.97,4,1,11,0.00
2013-5-31,90.1,75.3,58.0,68.5,62.2,56.6,96,69,33,30.09,29.87,5,1,11,0.00
2013-6-1,66.9,63.6,60.7,64.5,61.8,59.3,96,94,91,29.93,29.91,1,0,11,0.00
2013-6-11,60.1,59.0,58.1,58.4,57.1,56.1,96,94,90,29.59,29.56,3,0,13,1.15
2013-6-12,69.4,58.7,52.5,55.7,52.7,50.0,94,82,51,29.86,29.58,5,1,12,0.13
2013-6-13,52.8,50.9,48.3,50.8,49.1,46.7,94,94,93,29.85,29.82,0,0,11,0.00
2013-6-15,75.4,70.3,57.0,50.0,45.7,41.0,67,42,32,29.93,29.84,5,2,11,0.00
2013-6-16,73.7,60.4,46.5,61.0,52.9,44.3,93,78,50,29.97,29.69,5,1,11,0.06
2013-6-17,79.2,66.7,58.4,62.9,58.9,55.0,93,78,44,29.89,29.74,6,1,12,0.12
2013-6-18,64.2,59.0,51.0,60.3,55.1,48.8,94,87,74,29.97,29.88,4,0,11,0.08
2013-6-19,70.6,57.7,44.3,51.5,44.2,32.0,96,67,25,30.20,29.97,4,1,11,0.00
2013-6-20,77.0,59.9,39.5,52.3,44.2,34.2,95,63,22,30.30,30.15,3,0,11,0.00
2013-6-21,83.8,66.0,48.8,58.6,51.7,46.1,95,66,29,30.26,30.15,3,0,11,0.00
2013-6-22,84.7,69.0,52.5,65.9,59.3,50.5,95,74,41,30.21,30.02,4,0,11,0.00
2013-6-23,89.7,76.0,66.1,71.4,66.6,62.4,94,75,47,30.08,29.88,4,1,13,0.10
2013-6-24,87.4,71.2,65.0,75.0,66.8,62.2,96,87,57,29.99,29.87,4,0,11,1.52
2013-6-25,87.6,72.7,62.7,71.8,66.4,61.5,97,83,49,29.95,29.71,4,0,11,0.34
2013-6-26,77.0,69.9,65.3,69.3,66.9,63.5,97,90,70,29.80,29.72,1,0,11,0.38
2013-6-27,85.9,71.7,62.4,71.5,65.8,61.2,97,83,53,29.81,29.64,2,0,11,0.03
2013-6-28,79.8,69.7,62.9,68.8,64.2,58.9,95,84,60,29.64,29.42,4,1,11,0.50
2013-6-29,82.4,70.9,64.7,67.6,64.7,59.6,97,83,47,29.66,29.45,4,1,11,0.17
2013-6-30,84.7,71.3,63.5,70.1,65.5,62.3,97,84,53,29.88,29.66,5,0,11,0.06
2013-7-1,79.9,70.5,64.5,71.2,67.5,63.3,97,91,66,30.00,29.88,1,0,11,0.62
2013-7-2,85.5,73.0,65.6,74.9,68.8,64.4,97,87,61,30.12,29.99,3,0,11,0.77
2013-7-3,84.9,76.0,67.8,72.4,69.6,66.6,97,82,59,30.16,30.06,2,0,11,0.30
2013-7-4,89.7,80.1,71.3,73.3,70.3,68.2,93,74,50,30.16,30.00,3,1,11,0.02
2013-7-5,90.5,81.1,73.2,73.4,71.0,67.2,92,73,49,30.11,29.96,5,1,11,0.67
2013-7-6,85.1,75.2,67.1,71.3,67.6,63.4,97,79,53,30.07,29.96,4,1,11,0.03
2013-7-7,89.0,73.8,63.5,72.9,67.3,61.7,95,82,51,30.02,29.85,3,0,11,0.22
2013-7-8,81.4,74.3,70.4,71.3,69.1,66.5,97,84,63,30.00,29.89,3,0,11,0.01
2013-7-9,84.0,73.4,66.9,74.8,68.8,65.4,96,86,58,30.05,29.95,1,0,11,0.15
2013-7-10,84.9,73.0,66.1,72.2,68.9,64.9,96,88,61,29.98,29.74,3,0,11,0.44
2013-7-11,79.0,73.4,70.9,70.6,67.1,63.1,95,81,60,29.82,29.71,2,0,11,0.00
2013-7-12,83.6,73.3,58.1,63.7,60.0,55.4,95,65,42,30.15,30.04,1,0,11,0.00
2013-7-13,78.5,71.0,64.5,67.8,61.8,53.9,92,73,54,30.27,30.16,3,0,7,0.00
2013-7-14,86.3,76.1,66.4,72.5,68.5,64.6,95,79,54,30.30,30.16,2,0,7,0.00
2013-7-15,91.6,77.5,66.4,72.4,67.5,63.6,96,75,41,30.22,30.06,4,0,7,0.00
2013-7-16,91.6,77.0,63.2,69.6,65.7,61.4,97,72,40,30.20,30.09,4,1,10,0.00
2013-7-17,92.5,79.6,64.2,73.0,67.6,62.5,96,70,44,30.18,29.92,3,1,9,0.00
2013-7-18,91.2,82.7,72.1,74.2,70.8,66.5,92,69,50,29.98,29.86,5,1,8,0.00
2013-7-19,93.2,82.5,68.8,74.5,69.4,65.3,91,67,44,29.88,29.63,11,2,26,0.73
2013-7-20,84.3,72.8,66.9,69.1,66.8,65.4,96,83,56,29.72,29.64,5,1,10,0.00
2013-7-21,80.9,74.1,63.4,64.9,62.3,58.5,91,68,48,29.97,29.89,2,0,6,0.00
2013-7-22,64.0,61.9,60.9,62.8,60.1,58.9,97,94,92,30.00,29.96,0,0,4,0.37
2013-7-24,75.6,67.0,54.2,62.1,55.2,46.7,78,66,52,30.02,29.72,6,2,12,0.00
2013-7-25,76.5,61.6,47.1,58.1,51.1,44.5,92,70,46,30.11,30.02,2,0,9,0.00
2013-7-26,74.2,63.5,55.7,60.2,56.1,53.2,92,78,49,30.07,29.96,3,0,8,0.00
2013-7-27,83.0,68.1,51.9,64.4,57.2,49.6,98,72,34,30.07,29.91,3,0,7,0.00
2013-7-28,77.0,67.1,58.4,69.2,63.2,56.7,96,88,66,29.98,29.90,1,0,7,0.05
2013-7-29,80.7,71.0,59.6,67.5,61.1,52.0,96,74,45,30.06,29.93,3,0,8,0.02
2013-7-30,77.4,66.0,52.6,59.1,55.1,50.8,96,70,45,30.14,30.03,2,0,6,0.00
2013-7-31,81.6,67.0,53.5,62.7,57.3,51.6,96,74,42,30.16,29.99,1,0,3,0.00
2013-8-1,76.1,63.1,52.8,65.2,59.3,51.4,96,88,63,30.03,29.82,2,0,6,0.14
2013-8-2,79.4,69.6,60.2,65.0,58.7,52.9,96,71,41,29.85,29.76,6,1,12,0.01
2013-8-3,79.0,65.2,56.5,60.0,55.5,50.9,95,74,40,29.84,29.75,6,1,14,0.06
2013-8-4,74.2,63.1,52.9,59.4,53.8,49.1,95,73,47,29.94,29.80,5,1,11,0.00
2013-8-5,74.6,60.1,48.5,52.7,46.7,39.5,96,67,31,30.07,29.94,5,1,11,0.00
2013-8-6,78.5,61.9,44.9,57.3,49.9,43.3,96,70,37,30.14,30.05,3,0,11,0.00
2013-8-7,77.9,66.6,55.4,62.0,57.6,52.8,93,75,44,30.14,30.01,2,0,12,0.00
2013-8-8,84.1,73.6,65.8,69.4,65.5,60.9,87,77,54,30.01,29.91,4,0,8,0.00
2013-8-9,78.6,73.7,71.1,71.0,69.1,65.3,95,86,74,29.93,29.72,2,0,8,0.00
2013-8-10,78.1,70.5,60.9,66.0,56.1,38.6,93,64,25,29.90,29.78,5,1,12,0.00
2013-8-17,79.9,71.0,56.5,61.2,57.0,50.9,92,64,37,30.27,30.19,2,0,8,0.00
2013-8-18,76.0,61.3,52.2,61.7,56.0,50.6,97,84,56,30.29,30.10,0,0,1,0.00
2013-8-19,80.7,66.8,52.8,63.4,58.2,51.5,97,76,48,30.10,29.94,2,0,8,0.00
2013-8-20,83.6,67.9,53.5,64.6,58.9,51.8,97,76,42,30.11,30.00,2,0,7,0.00
2013-8-21,84.7,69.4,56.0,66.5,60.2,54.3,97,76,43,30.17,29.99,2,0,5,0.00
2013-8-22,85.5,71.3,57.3,67.3,62.2,55.6,97,76,39,30.03,29.77,2,0,10,0.12
2013-8-23,74.2,63.8,50.4,65.3,55.9,46.3,96,78,39,30.18,29.84,4,0,7,0.01
2013-8-24,79.2,60.0,43.6,55.9,49.5,42.2,97,73,36,30.35,30.18,1,0,3,0.00
2013-8-25,79.6,62.2,43.9,60.7,52.7,42.3,97,75,39,30.42,30.14,2,0,3,0.00
2013-8-26,76.0,67.6,61.3,66.6,62.5,58.2,93,84,69,30.14,29.87,2,0,5,0.05
2013-8-27,82.0,70.5,64.7,68.8,66.0,62.6,95,87,62,29.89,29.81,1,0,5,0.01
2013-8-28,87.2,71.3,63.2,71.0,65.2,61.7,96,84,46,29.93,29.78,2,0,5,0.26
2013-8-29,79.0,67.9,59.9,64.8,62.1,58.2,97,83,57,30.04,29.92,1,0,5,0.00
2013-8-30,83.0,71.0,62.3,67.7,64.4,60.3,95,81,55,29.99,29.77,2,0,6,0.00
2013-8-31,79.0,70.8,66.6,73.0,68.2,64.4,96,92,79,29.80,29.70,1,0,5,0.16
2013-9-1,83.0,73.1,67.6,71.4,68.3,66.0,96,86,62,29.83,29.76,1,0,5,0.00
2013-9-2,83.6,71.3,63.5,73.2,67.5,60.9,97,89,61,29.80,29.63,7,0,10,0.02
2013-9-3,71.5,64.7,62.6,64.9,62.4,61.1,96,93,70,29.78,29.70,2,0,5,0.00
2013-9-4,77.2,68.0,61.6,58.0,49.3,-99.9,83,56,45,29.91,29.83,5,-36,9,0.00
2013-9-5,66.4,59.2,44.6,58.5,48.8,40.3,93,71,39,30.19,29.85,3,0,7,0.01
2013-9-6,67.3,51.3,38.0,48.4,41.6,36.2,96,74,35,30.32,30.12,2,0,7,0.00
2013-9-7,71.3,57.1,45.1,57.0,49.9,43.2,94,79,44,30.13,29.86,2,0,7,0.00
2013-9-8,65.8,57.3,42.2,57.3,49.2,39.9,93,76,47,30.15,29.80,4,1,10,0.01
2013-9-9,68.1,52.0,36.8,52.6,43.7,35.2,96,76,44,30.30,30.09,2,0,7,0.00
2013-9-10,79.2,65.4,51.6,69.0,61.5,49.1,95,88,70,30.11,29.95,2,0,7,0.11
2013-9-11,91.4,76.8,67.8,76.2,69.9,65.1,96,82,52,30.05,29.85,9,0,16,0.45
2013-9-12,67.8,67.1,66.8,65.8,65.5,65.3,95,95,94,29.93,29.86,1,0,7,0.00
2013-9-19,85.1,78.7,68.6,54.2,53.3,52.7,60,42,34,30.80,30.80,0,0,7,0.08